createdAt,value
2018-12-14T00:00:42.116Z,1002.84
2018-12-14T00:01:52.116Z,1002.86
2018-12-14T00:03:01.872Z,1002.83
2018-12-14T00:04:11.370Z,1002.82
2018-12-14T00:05:21.109Z,1002.83
2018-12-14T00:06:30.858Z,1002.8
2018-12-14T00:07:40.620Z,1002.86
2018-12-14T00:08:50.624Z,1002.89
2018-12-14T00:10:00.818Z,1002.9
2018-12-14T00:11:10.892Z,1002.86
2018-12-14T00:12:20.641Z,1002.87
2018-12-14T00:13:30.639Z,1002.86
2018-12-14T00:14:40.633Z,1002.85
2018-12-14T00:15:50.623Z,1002.86
2018-12-14T00:17:02.850Z,1002.88
2018-12-14T00:18:12.868Z,1002.87
2018-12-14T00:19:22.857Z,1002.82
2018-12-14T00:20:32.998Z,1002.83
2018-12-14T00:21:42.766Z,1002.84
2018-12-14T00:22:52.241Z,1002.84
2018-12-14T00:24:02.244Z,1002.82
2018-12-14T00:25:12.236Z,1002.81
2018-12-14T00:26:22.190Z,1002.82
2018-12-14T00:27:31.982Z,1002.82
2018-12-14T00:28:41.976Z,1002.84
2018-12-14T00:29:51.967Z,1002.82
2018-12-14T00:31:02.817Z,1002.82
2018-12-14T00:32:12.826Z,1002.8
2018-12-14T00:33:22.960Z,1002.82
2018-12-14T00:34:32.940Z,1002.82
2018-12-14T00:35:42.685Z,1002.85
2018-12-14T00:36:52.734Z,1002.83
2018-12-14T00:38:03.587Z,1002.86
2018-12-14T00:39:13.651Z,1002.88
2018-12-14T00:40:23.414Z,1002.85
2018-12-14T00:41:33.410Z,1002.88
2018-12-14T00:42:43.170Z,1002.92
2018-12-14T00:43:53.188Z,1002.95
2018-12-14T00:45:06.048Z,1002.94
2018-12-14T00:46:16.053Z,1002.93
2018-12-14T00:47:26.043Z,1002.95
2018-12-14T00:48:36.043Z,1002.97
2018-12-14T00:49:45.794Z,1002.93
2018-12-14T00:50:55.794Z,1002.98
2018-12-14T00:52:05.686Z,1002.98
2018-12-14T00:53:15.458Z,1003.02
2018-12-14T00:54:24.941Z,1003.05
2018-12-14T00:55:34.961Z,1003.01
2018-12-14T00:56:44.763Z,1003.03
2018-12-14T00:57:54.754Z,1003.02
2018-12-14T00:59:04.763Z,1003.02
2018-12-14T01:00:14.504Z,1002.99
2018-12-14T01:01:24.254Z,1003.03
2018-12-14T01:02:34.072Z,1003.01
2018-12-14T01:03:44.166Z,1002.93
2018-12-14T01:04:57.693Z,1002.98
2018-12-14T01:06:08.103Z,1002.95
2018-12-14T01:07:19.150Z,1002.96
2018-12-14T01:08:28.972Z,1002.97
2018-12-14T01:09:38.968Z,1003.03
2018-12-14T01:10:48.969Z,1002.99
2018-12-14T01:11:59.021Z,1003.01
2018-12-14T01:13:09.005Z,1002.98
2018-12-14T01:14:19.024Z,1002.96
2018-12-14T01:15:29.009Z,1002.98
2018-12-14T01:16:39.231Z,1002.97
2018-12-14T01:17:49.661Z,1002.97
2018-12-14T01:18:59.913Z,1002.98
2018-12-14T01:20:10.323Z,1002.95
2018-12-14T01:21:20.209Z,1002.96
2018-12-14T01:22:30.232Z,1002.96
2018-12-14T01:23:40.227Z,1002.96
2018-12-14T01:24:50.240Z,1002.93
2018-12-14T01:26:03.136Z,1002.97
2018-12-14T01:27:13.137Z,1002.94
2018-12-14T01:28:22.877Z,1002.94
2018-12-14T01:29:32.612Z,1002.89
2018-12-14T01:30:42.610Z,1002.9
2018-12-14T01:31:52.639Z,1002.86
2018-12-14T01:33:02.639Z,1002.86
2018-12-14T01:34:12.389Z,1002.87
2018-12-14T01:35:22.374Z,1002.83
2018-12-14T01:36:32.366Z,1002.83
2018-12-14T01:37:42.109Z,1002.87
2018-12-14T01:38:52.125Z,1002.85
2018-12-14T01:40:02.180Z,1002.84
2018-12-14T01:41:11.910Z,1002.86
2018-12-14T01:42:21.902Z,1002.9
2018-12-14T01:43:31.941Z,1002.88
2018-12-14T01:44:41.438Z,1002.9
2018-12-14T01:45:51.439Z,1002.89
2018-12-14T01:47:03.015Z,1002.9
2018-12-14T01:48:13.701Z,1002.91
2018-12-14T01:49:23.739Z,1002.93
2018-12-14T01:50:34.020Z,1002.89
2018-12-14T01:51:45.658Z,1002.89
2018-12-14T01:52:56.075Z,1002.94
2018-12-14T01:54:06.075Z,1002.95
2018-12-14T01:55:16.117Z,1002.93
2018-12-14T01:56:26.119Z,1002.97
2018-12-14T01:57:36.347Z,1003.01
2018-12-14T01:58:46.379Z,1003.01
2018-12-14T01:59:56.145Z,1003.01
2018-12-14T02:01:05.896Z,1003
2018-12-14T02:02:15.627Z,1002.95
2018-12-14T02:03:25.621Z,1003.01
2018-12-14T02:04:35.751Z,1002.96
2018-12-14T02:05:45.803Z,1003
2018-12-14T02:06:55.902Z,1003.01
2018-12-14T02:08:05.626Z,1003.04
2018-12-14T02:09:15.439Z,1003.03
2018-12-14T02:10:25.245Z,1003.08
2018-12-14T02:11:35.304Z,1003.03
2018-12-14T02:12:45.380Z,1003.03
2018-12-14T02:13:55.495Z,1003.06
2018-12-14T02:15:05.569Z,1003.08
2018-12-14T02:16:15.631Z,1003.01
2018-12-14T02:17:25.687Z,1003.03
2018-12-14T02:18:35.478Z,1002.98
2018-12-14T02:19:45.524Z,1003
2018-12-14T02:20:55.341Z,1002.99
2018-12-14T02:22:05.554Z,1002.97
2018-12-14T02:23:15.612Z,1003.01
2018-12-14T02:24:25.714Z,1003.02
2018-12-14T02:25:35.521Z,1002.99
2018-12-14T02:26:45.068Z,1002.98
2018-12-14T02:27:55.160Z,1002.93
2018-12-14T02:29:04.959Z,1002.96
2018-12-14T02:30:15.344Z,1002.95
2018-12-14T02:31:25.413Z,1002.93
2018-12-14T02:32:35.495Z,1002.93
2018-12-14T02:33:45.556Z,1002.95
2018-12-14T02:34:55.623Z,1002.92
2018-12-14T02:36:05.736Z,1002.92
2018-12-14T02:37:15.781Z,1002.94
2018-12-14T02:38:25.844Z,1002.96
2018-12-14T02:39:35.383Z,1003
2018-12-14T02:40:45.446Z,1003.02
2018-12-14T02:41:55.537Z,1003
2018-12-14T02:43:05.610Z,1003.02
2018-12-14T02:44:15.670Z,1003.02
2018-12-14T02:45:25.989Z,1002.96
2018-12-14T02:46:36.199Z,1002.99
2018-12-14T02:47:49.641Z,1003.01
2018-12-14T02:48:59.252Z,1003
2018-12-14T02:50:10.625Z,1003.02
2018-12-14T02:51:20.686Z,1002.99
2018-12-14T02:52:30.485Z,1002.96
2018-12-14T02:53:40.281Z,1002.99
2018-12-14T02:54:50.332Z,1002.98
2018-12-14T02:56:00.399Z,1002.93
2018-12-14T02:57:10.458Z,1002.94
2018-12-14T02:58:20.542Z,1002.92
2018-12-14T02:59:30.633Z,1002.85
2018-12-14T03:00:40.700Z,1002.91
2018-12-14T03:01:50.777Z,1002.85
2018-12-14T03:03:00.319Z,1002.85
2018-12-14T03:35:08.251Z,1002.81
2018-12-14T03:36:18.540Z,1002.8
2018-12-14T03:46:38.762Z,1002.82
2018-12-14T03:47:48.820Z,1002.84
2018-12-14T03:48:58.667Z,1002.83
2018-12-14T03:50:08.693Z,1002.85
2018-12-14T03:51:18.294Z,1002.83
2018-12-14T03:52:28.348Z,1002.83
2018-12-14T03:53:38.428Z,1002.83
2018-12-14T03:54:48.224Z,1002.83
2018-12-14T03:55:58.285Z,1002.85
2018-12-14T03:57:08.394Z,1002.89
2018-12-14T03:58:18.451Z,1002.88
2018-12-14T03:59:28.574Z,1002.85
2018-12-14T04:00:38.637Z,1002.94
2018-12-14T04:01:48.466Z,1002.92
2018-12-14T04:02:58.622Z,1002.93
2018-12-14T04:04:08.666Z,1002.9
2018-12-14T04:05:18.710Z,1002.92
2018-12-14T04:06:28.525Z,1002.93
2018-12-14T04:07:38.602Z,1002.94
2018-12-14T04:08:48.694Z,1002.97
2018-12-14T04:09:58.742Z,1002.98
2018-12-14T04:11:08.838Z,1002.92
2018-12-14T04:12:18.901Z,1002.94
2018-12-14T04:13:28.443Z,1002.95
2018-12-14T04:14:38.488Z,1002.96
2018-12-14T04:15:48.305Z,1002.94
2018-12-14T04:16:58.366Z,1002.98
2018-12-14T04:18:08.451Z,1002.95
2018-12-14T04:19:18.546Z,1002.95
2018-12-14T04:20:28.504Z,1002.96
2018-12-14T04:21:38.571Z,1002.95
2018-12-14T04:22:49.119Z,1002.97
2018-12-14T04:23:59.211Z,1002.97
2018-12-14T04:25:09.270Z,1002.99
2018-12-14T04:26:19.416Z,1002.98
2018-12-14T04:27:29.486Z,1002.98
2018-12-14T04:28:39.560Z,1002.99
2018-12-14T04:29:49.633Z,1003.05
2018-12-14T04:30:59.692Z,1003.05
2018-12-14T04:32:09.759Z,1003.01
2018-12-14T04:33:19.806Z,1003.06
2018-12-14T04:34:29.882Z,1003.05
2018-12-14T04:35:39.943Z,1003.07
2018-12-14T04:36:50.011Z,1003.07
2018-12-14T04:38:02.927Z,1003.09
2018-12-14T04:39:12.999Z,1003.12
2018-12-14T04:40:23.074Z,1003.11
2018-12-14T04:41:33.181Z,1003.11
2018-12-14T04:42:48.735Z,1003.15
2018-12-14T04:43:58.795Z,1003.14
2018-12-14T04:45:08.884Z,1003.14
2018-12-14T04:46:18.958Z,1003.14
2018-12-14T04:47:29.133Z,1003.17
2018-12-14T04:48:38.981Z,1003.17
2018-12-14T04:49:49.100Z,1003.19
2018-12-14T04:50:59.161Z,1003.18
2018-12-14T04:52:08.958Z,1003.22
2018-12-14T04:53:19.114Z,1003.19
2018-12-14T04:54:28.915Z,1003.22
2018-12-14T04:55:38.768Z,1003.2
2018-12-14T04:56:48.571Z,1003.2
2018-12-14T04:57:58.686Z,1003.25
2018-12-14T04:59:09.980Z,1003.2
2018-12-14T05:00:20.143Z,1003.2
2018-12-14T05:01:30.257Z,1003.18
2018-12-14T05:02:40.125Z,1003.24
2018-12-14T05:03:50.170Z,1003.27
2018-12-14T05:04:59.978Z,1003.28
2018-12-14T05:06:09.796Z,1003.23
2018-12-14T05:07:19.584Z,1003.29
2018-12-14T05:08:29.752Z,1003.27
2018-12-14T05:09:39.794Z,1003.33
2018-12-14T05:10:49.852Z,1003.3
2018-12-14T05:11:59.911Z,1003.3
2018-12-14T05:13:09.944Z,1003.39
2018-12-14T05:14:20.051Z,1003.39
2018-12-14T05:15:29.854Z,1003.37
2018-12-14T05:16:39.980Z,1003.37
2018-12-14T05:17:50.698Z,1003.38
2018-12-14T05:19:01.868Z,1003.36
2018-12-14T05:20:11.673Z,1003.38
2018-12-14T05:21:21.478Z,1003.42
2018-12-14T05:22:31.535Z,1003.43
2018-12-14T05:23:41.072Z,1003.36
2018-12-14T05:24:50.918Z,1003.37
2018-12-14T05:26:03.704Z,1003.35
2018-12-14T05:27:13.490Z,1003.39
2018-12-14T05:28:23.554Z,1003.37
2018-12-14T05:29:33.595Z,1003.38
2018-12-14T05:30:43.644Z,1003.38
2018-12-14T05:31:53.755Z,1003.37
2018-12-14T05:33:03.962Z,1003.39
2018-12-14T05:34:14.089Z,1003.35
2018-12-14T05:35:24.206Z,1003.41
2018-12-14T05:36:34.252Z,1003.36
2018-12-14T05:37:44.309Z,1003.41
2018-12-14T05:38:53.877Z,1003.43
2018-12-14T05:40:03.673Z,1003.43
2018-12-14T05:41:13.835Z,1003.45
2018-12-14T05:42:23.912Z,1003.46
2018-12-14T05:43:33.954Z,1003.47
2018-12-14T05:44:43.828Z,1003.42
2018-12-14T05:45:54.326Z,1003.44
2018-12-14T05:47:04.363Z,1003.45
2018-12-14T05:48:14.401Z,1003.43
2018-12-14T05:49:24.246Z,1003.46
2018-12-14T05:50:34.518Z,1003.51
2018-12-14T05:51:44.325Z,1003.48
2018-12-14T05:52:53.875Z,1003.53
2018-12-14T05:54:03.947Z,1003.52
2018-12-14T05:55:14.002Z,1003.5
2018-12-14T05:56:23.795Z,1003.52
2018-12-14T05:57:33.874Z,1003.54
2018-12-14T05:58:43.917Z,1003.52
2018-12-14T05:59:53.983Z,1003.49
2018-12-14T06:01:06.159Z,1003.47
2018-12-14T06:02:16.406Z,1003.51
2018-12-14T06:03:26.254Z,1003.52
2018-12-14T06:04:35.794Z,1003.53
2018-12-14T06:05:45.857Z,1003.55
2018-12-14T06:06:55.958Z,1003.58
2018-12-14T06:08:05.781Z,1003.62
2018-12-14T06:09:15.625Z,1003.61
2018-12-14T06:10:25.699Z,1003.58
2018-12-14T06:11:35.769Z,1003.6
2018-12-14T06:12:46.625Z,1003.64
2018-12-14T06:13:56.443Z,1003.62
2018-12-14T06:15:06.266Z,1003.62
2018-12-14T06:16:16.320Z,1003.62
2018-12-14T06:17:26.169Z,1003.67
2018-12-14T06:18:35.977Z,1003.61
2018-12-14T06:19:46.023Z,1003.58
2018-12-14T06:20:55.960Z,1003.63
2018-12-14T06:22:06.580Z,1003.61
2018-12-14T06:23:16.634Z,1003.67
2018-12-14T06:24:26.859Z,1003.66
2018-12-14T06:25:36.660Z,1003.69
2018-12-14T06:26:46.720Z,1003.71
2018-12-14T06:27:57.012Z,1003.71
2018-12-14T06:29:07.052Z,1003.74
2018-12-14T06:30:16.862Z,1003.73
2018-12-14T06:31:26.923Z,1003.71
2018-12-14T06:32:37.038Z,1003.71
2018-12-14T06:33:46.819Z,1003.7
2018-12-14T06:34:56.871Z,1003.73
2018-12-14T06:36:06.921Z,1003.7
2018-12-14T06:37:17.054Z,1003.67
2018-12-14T06:38:27.501Z,1003.73
2018-12-14T06:39:37.597Z,1003.74
2018-12-14T06:40:47.722Z,1003.75
2018-12-14T06:41:58.767Z,1003.79
2018-12-14T06:43:08.832Z,1003.79
2018-12-14T06:44:23.275Z,1003.8
2018-12-14T06:45:33.334Z,1003.81
2018-12-14T06:46:43.395Z,1003.81
2018-12-14T06:47:53.249Z,1003.82
2018-12-14T06:49:05.922Z,1003.81
2018-12-14T06:50:16.087Z,1003.87
2018-12-14T06:51:26.168Z,1003.87
2018-12-14T06:52:36.238Z,1003.86
2018-12-14T06:53:46.297Z,1003.85
2018-12-14T06:54:56.362Z,1003.85
2018-12-14T06:56:06.701Z,1003.85
2018-12-14T06:57:16.519Z,1003.86
2018-12-14T06:58:27.818Z,1003.9
2018-12-14T06:59:37.889Z,1003.9
2018-12-14T07:00:47.936Z,1003.87
2018-12-14T07:01:57.461Z,1003.89
2018-12-14T07:03:07.256Z,1003.94
2018-12-14T07:04:17.972Z,1003.95
2018-12-14T07:05:28.058Z,1003.95
2018-12-14T07:06:38.498Z,1003.99
2018-12-14T07:07:48.297Z,1003.98
2018-12-14T07:08:58.090Z,1003.98
2018-12-14T07:10:10.614Z,1003.99
2018-12-14T07:11:20.675Z,1003.98
2018-12-14T07:12:30.743Z,1003.93
2018-12-14T07:13:41.363Z,1003.97
2018-12-14T07:14:51.417Z,1003.98
2018-12-14T07:16:02.166Z,1003.98
2018-12-14T07:17:12.300Z,1003.98
2018-12-14T07:18:22.375Z,1004
2018-12-14T07:19:32.435Z,1004.03
2018-12-14T07:20:42.505Z,1004.03
2018-12-14T07:21:52.298Z,1004.01
2018-12-14T07:23:02.434Z,1004.05
2018-12-14T07:24:12.511Z,1004.02
2018-12-14T07:25:22.684Z,1004.03
2018-12-14T07:26:32.489Z,1004.06
2018-12-14T07:27:42.565Z,1004.01
2018-12-14T07:28:52.629Z,1004.06
2018-12-14T07:30:02.709Z,1004.05
2018-12-14T07:31:12.854Z,1004.05
2018-12-14T07:32:22.908Z,1004.05
2018-12-14T07:33:32.971Z,1004.07
2018-12-14T07:34:43.023Z,1004.04
2018-12-14T07:35:53.076Z,1004.09
2018-12-14T07:37:03.168Z,1004.13
2018-12-14T07:38:13.226Z,1004.11
2018-12-14T07:39:23.508Z,1004.09
2018-12-14T07:40:33.309Z,1004.13
2018-12-14T07:41:43.673Z,1004.12
2018-12-14T07:42:53.485Z,1004.1
2018-12-14T07:44:03.275Z,1004.16
2018-12-14T07:45:13.336Z,1004.15
2018-12-14T07:46:23.410Z,1004.17
2018-12-14T07:47:33.488Z,1004.21
2018-12-14T07:48:43.564Z,1004.25
2018-12-14T07:49:53.697Z,1004.28
2018-12-14T07:51:06.418Z,1004.29
2018-12-14T07:52:16.496Z,1004.29
2018-12-14T07:53:26.560Z,1004.25
2018-12-14T07:54:36.421Z,1004.27
2018-12-14T07:55:46.477Z,1004.28
2018-12-14T07:56:56.514Z,1004.25
2018-12-14T07:58:07.722Z,1004.28
2018-12-14T07:59:17.799Z,1004.3
2018-12-14T08:00:27.869Z,1004.31
2018-12-14T08:01:37.997Z,1004.3
2018-12-14T08:02:48.147Z,1004.36
2018-12-14T08:03:58.231Z,1004.39
2018-12-14T08:05:08.292Z,1004.36
2018-12-14T08:06:18.352Z,1004.38
2018-12-14T08:07:28.691Z,1004.4
2018-12-14T08:08:38.858Z,1004.45
2018-12-14T08:09:48.723Z,1004.44
2018-12-14T08:10:58.881Z,1004.46
2018-12-14T08:12:09.180Z,1004.52
2018-12-14T08:13:19.500Z,1004.43
2018-12-14T08:14:35.205Z,1004.51
2018-12-14T08:15:45.261Z,1004.46
2018-12-14T08:16:55.378Z,1004.42
2018-12-14T08:18:05.686Z,1004.45
2018-12-14T08:19:15.830Z,1004.48
2018-12-14T08:20:25.908Z,1004.47
2018-12-14T08:21:36.187Z,1004.47
2018-12-14T08:22:46.253Z,1004.48
2018-12-14T08:23:56.301Z,1004.47
2018-12-14T08:25:06.374Z,1004.46
2018-12-14T08:26:16.423Z,1004.48
2018-12-14T08:27:26.469Z,1004.53
2018-12-14T08:28:36.282Z,1004.49
2018-12-14T08:29:46.341Z,1004.48
2018-12-14T08:30:57.215Z,1004.45
2018-12-14T08:32:07.277Z,1004.47
2018-12-14T08:33:17.104Z,1004.49
2018-12-14T08:34:27.146Z,1004.54
2018-12-14T08:35:37.188Z,1004.54
2018-12-14T08:36:47.015Z,1004.52
2018-12-14T08:37:57.069Z,1004.54
2018-12-14T08:39:07.888Z,1004.55
2018-12-14T08:40:17.955Z,1004.57
2018-12-14T08:41:28.040Z,1004.57
2018-12-14T08:42:38.658Z,1004.59
2018-12-14T08:43:48.598Z,1004.62
2018-12-14T08:44:58.470Z,1004.56
2018-12-14T08:46:09.063Z,1004.62
2018-12-14T08:47:19.110Z,1004.6
2018-12-14T08:48:28.832Z,1004.63
2018-12-14T08:49:38.934Z,1004.73
2018-12-14T08:50:49.222Z,1004.72
2018-12-14T08:51:59.278Z,1004.7
2018-12-14T08:53:09.353Z,1004.75
2018-12-14T08:54:19.412Z,1004.76
2018-12-14T08:55:29.282Z,1004.8
2018-12-14T08:56:39.329Z,1004.83
2018-12-14T08:57:49.365Z,1004.78
2018-12-14T08:58:59.450Z,1004.83
2018-12-14T09:00:10.975Z,1004.79
2018-12-14T09:01:21.032Z,1004.8
2018-12-14T09:02:31.082Z,1004.8
2018-12-14T09:03:41.133Z,1004.85
2018-12-14T09:04:51.202Z,1004.88
2018-12-14T09:06:01.248Z,1004.87
2018-12-14T09:07:11.217Z,1004.86
2018-12-14T09:08:27.145Z,1004.84
2018-12-14T09:09:37.018Z,1004.84
2018-12-14T09:10:46.803Z,1004.84
2018-12-14T09:11:56.361Z,1004.89
2018-12-14T09:13:06.422Z,1004.88
2018-12-14T09:14:16.491Z,1004.86
2018-12-14T09:15:26.531Z,1004.86
2018-12-14T09:16:36.325Z,1004.83
2018-12-14T09:17:45.872Z,1004.81
2018-12-14T09:18:55.969Z,1004.84
2018-12-14T09:20:06.037Z,1004.78
2018-12-14T09:21:16.095Z,1004.81
2018-12-14T09:22:25.901Z,1004.8
2018-12-14T09:23:35.734Z,1004.77
2018-12-14T09:24:45.855Z,1004.76
2018-12-14T09:25:55.672Z,1004.76
2018-12-14T09:27:06.602Z,1004.8
2018-12-14T09:28:16.395Z,1004.77
2018-12-14T09:29:26.207Z,1004.79
2018-12-14T09:30:42.455Z,1004.78
2018-12-14T09:31:52.584Z,1004.83
2018-12-14T09:33:02.661Z,1004.84
2018-12-14T09:34:12.790Z,1004.89
2018-12-14T09:35:22.825Z,1004.84
2018-12-14T09:36:32.945Z,1004.84
2018-12-14T09:37:42.990Z,1004.82
2018-12-14T09:38:52.795Z,1004.84
2018-12-14T09:40:03.728Z,1004.84
2018-12-14T09:41:16.275Z,1004.82
2018-12-14T09:42:26.243Z,1004.83
2018-12-14T09:43:36.363Z,1004.79
2018-12-14T09:44:46.415Z,1004.8
2018-12-14T09:45:56.205Z,1004.78
2018-12-14T09:47:06.282Z,1004.76
2018-12-14T09:48:16.430Z,1004.74
2018-12-14T09:49:26.486Z,1004.7
2018-12-14T09:50:36.548Z,1004.68
2018-12-14T09:51:46.335Z,1004.69
2018-12-14T09:52:56.134Z,1004.66
2018-12-14T09:54:06.345Z,1004.68
2018-12-14T09:55:16.410Z,1004.62
2018-12-14T09:56:26.470Z,1004.67
2018-12-14T09:57:36.323Z,1004.66
2018-12-14T09:58:46.391Z,1004.66
2018-12-14T09:59:56.501Z,1004.69
2018-12-14T10:01:08.150Z,1004.68
2018-12-14T10:02:19.760Z,1004.68
2018-12-14T10:03:29.288Z,1004.68
2018-12-14T10:04:39.603Z,1004.63
2018-12-14T10:05:52.009Z,1004.58
2018-12-14T10:07:03.117Z,1004.62
2018-12-14T10:08:13.013Z,1004.6
2018-12-14T10:09:24.104Z,1004.59
2018-12-14T10:10:34.117Z,1004.58
2018-12-14T10:11:44.539Z,1004.63
2018-12-14T10:13:00.512Z,1004.59
2018-12-14T10:14:10.772Z,1004.61
2018-12-14T10:15:21.236Z,1004.62
2018-12-14T10:16:31.545Z,1004.65
2018-12-14T10:17:41.602Z,1004.67
2018-12-14T10:18:51.810Z,1004.66
2018-12-14T10:20:01.851Z,1004.66
2018-12-14T10:21:11.899Z,1004.64
2018-12-14T10:22:22.465Z,1004.66
2018-12-14T10:23:33.020Z,1004.67
2018-12-14T10:24:43.569Z,1004.63
2018-12-14T10:25:53.870Z,1004.65
2018-12-14T10:27:03.668Z,1004.58
2018-12-14T10:28:13.748Z,1004.63
2018-12-14T10:29:23.799Z,1004.59
2018-12-14T10:30:34.308Z,1004.61
2018-12-14T10:31:44.607Z,1004.62
2018-12-14T10:32:54.746Z,1004.61
2018-12-14T10:34:05.508Z,1004.64
2018-12-14T10:35:15.624Z,1004.62
2018-12-14T10:36:26.266Z,1004.59
2018-12-14T10:37:36.958Z,1004.59
2018-12-14T10:38:47.056Z,1004.62
2018-12-14T10:39:57.113Z,1004.61
2018-12-14T10:41:07.187Z,1004.62
2018-12-14T10:42:17.521Z,1004.64
2018-12-14T10:43:27.845Z,1004.62
2018-12-14T10:44:38.163Z,1004.6
2018-12-14T10:45:48.170Z,1004.57
2018-12-14T10:46:58.260Z,1004.57
2018-12-14T10:48:08.551Z,1004.56
2018-12-14T10:49:18.909Z,1004.61
2018-12-14T10:50:35.671Z,1004.6
2018-12-14T10:51:49.565Z,1004.59
2018-12-14T10:52:59.876Z,1004.55
2018-12-14T10:54:09.997Z,1004.58
2018-12-14T10:55:20.044Z,1004.58
2018-12-14T10:56:30.341Z,1004.56
2018-12-14T10:57:40.844Z,1004.56
2018-12-14T10:58:51.174Z,1004.55
2018-12-14T11:00:03.844Z,1004.53
2018-12-14T11:01:14.427Z,1004.54
2018-12-14T11:02:24.802Z,1004.51
2018-12-14T11:03:35.287Z,1004.54
2018-12-14T11:04:46.003Z,1004.51
2018-12-14T11:05:57.162Z,1004.49
2018-12-14T11:07:07.702Z,1004.48
2018-12-14T11:08:17.997Z,1004.45
2018-12-14T11:09:28.307Z,1004.48
2018-12-14T11:10:39.017Z,1004.47
2018-12-14T11:11:49.358Z,1004.49
2018-12-14T11:12:59.486Z,1004.5
2018-12-14T11:14:13.838Z,1004.46
2018-12-14T11:15:24.419Z,1004.48
2018-12-14T11:16:36.123Z,1004.48
2018-12-14T11:17:47.456Z,1004.48
2018-12-14T11:18:57.756Z,1004.44
2018-12-14T11:20:08.037Z,1004.46
2018-12-14T11:21:18.595Z,1004.45
2018-12-14T11:22:28.401Z,1004.46
2018-12-14T11:23:38.700Z,1004.48
2018-12-14T11:24:49.067Z,1004.48
2018-12-14T11:25:59.592Z,1004.48
2018-12-14T11:27:09.659Z,1004.44
2018-12-14T11:28:19.985Z,1004.47
2018-12-14T11:29:30.320Z,1004.44
2018-12-14T11:30:40.494Z,1004.41
2018-12-14T11:31:50.580Z,1004.45
2018-12-14T11:33:01.651Z,1004.41
2018-12-14T11:34:11.768Z,1004.41
2018-12-14T11:35:21.609Z,1004.45
2018-12-14T11:36:31.680Z,1004.48
2018-12-14T11:37:41.748Z,1004.42
2018-12-14T11:38:51.811Z,1004.44
2018-12-14T11:40:01.938Z,1004.45
2018-12-14T11:41:18.274Z,1004.41
2018-12-14T11:42:28.333Z,1004.44
2018-12-14T11:43:38.411Z,1004.41
2018-12-14T11:44:48.467Z,1004.39
2018-12-14T11:45:58.551Z,1004.43
2018-12-14T11:47:08.625Z,1004.43
2018-12-14T11:48:23.511Z,1004.45
2018-12-14T11:49:33.586Z,1004.42
2018-12-14T11:50:43.715Z,1004.43
2018-12-14T11:51:53.782Z,1004.45
2018-12-14T11:53:04.258Z,1004.42
2018-12-14T11:54:14.108Z,1004.42
2018-12-14T11:55:25.259Z,1004.46
2018-12-14T11:56:35.316Z,1004.43
2018-12-14T11:57:45.388Z,1004.41
2018-12-14T11:58:55.191Z,1004.37
2018-12-14T12:00:05.013Z,1004.31
2018-12-14T12:01:15.084Z,1004.35
2018-12-14T12:02:25.153Z,1004.37
2018-12-14T12:03:35.237Z,1004.41
2018-12-14T12:04:50.532Z,1004.38
2018-12-14T12:06:01.293Z,1004.41
2018-12-14T12:07:11.492Z,1004.41
2018-12-14T12:08:21.571Z,1004.39
2018-12-14T12:09:31.645Z,1004.39
2018-12-14T12:10:41.726Z,1004.37
2018-12-14T12:11:51.956Z,1004.39
2018-12-14T12:13:02.190Z,1004.35
2018-12-14T12:14:12.267Z,1004.39
2018-12-14T12:15:27.505Z,1004.39
2018-12-14T12:16:37.569Z,1004.41
2018-12-14T12:17:49.493Z,1004.39
2018-12-14T12:18:59.755Z,1004.39
2018-12-14T12:20:10.829Z,1004.41
2018-12-14T12:21:20.633Z,1004.4
2018-12-14T12:22:30.689Z,1004.37
2018-12-14T12:23:40.763Z,1004.37
2018-12-14T12:24:55.932Z,1004.3
2018-12-14T12:26:08.443Z,1004.28
2018-12-14T12:27:18.585Z,1004.33
2018-12-14T12:28:28.655Z,1004.29
2018-12-14T12:29:39.019Z,1004.29
2018-12-14T12:30:49.084Z,1004.27
2018-12-14T12:31:59.162Z,1004.28
2018-12-14T12:33:10.446Z,1004.3
2018-12-14T12:34:22.656Z,1004.28
2018-12-14T12:35:33.040Z,1004.33
2018-12-14T12:36:43.330Z,1004.26
2018-12-14T12:37:53.447Z,1004.28
2018-12-14T12:39:03.531Z,1004.27
2018-12-14T12:40:13.601Z,1004.25
2018-12-14T12:41:23.820Z,1004.2
2018-12-14T12:42:34.211Z,1004.25
2018-12-14T12:43:43.816Z,1004.23
2018-12-14T12:44:53.865Z,1004.21
2018-12-14T12:46:04.129Z,1004.26
2018-12-14T12:47:14.251Z,1004.25
2018-12-14T12:48:24.312Z,1004.26
2018-12-14T12:49:34.108Z,1004.25
2018-12-14T12:50:44.168Z,1004.25
2018-12-14T12:51:53.989Z,1004.26
2018-12-14T12:53:04.081Z,1004.22
2018-12-14T12:54:13.905Z,1004.19
2018-12-14T12:55:23.960Z,1004.18
2018-12-14T12:56:33.855Z,1004.21
2018-12-14T12:57:44.043Z,1004.21
2018-12-14T12:58:54.494Z,1004.19
2018-12-14T13:00:04.680Z,1004.2
2018-12-14T13:01:14.753Z,1004.18
2018-12-14T13:02:25.033Z,1004.21
2018-12-14T13:03:35.116Z,1004.16
2018-12-14T13:04:45.232Z,1004.18
2018-12-14T13:05:55.294Z,1004.17
2018-12-14T13:07:05.391Z,1004.2
2018-12-14T13:08:15.263Z,1004.18
2018-12-14T13:09:25.254Z,1004.12
2018-12-14T13:10:35.446Z,1004.13
2018-12-14T13:11:45.508Z,1004.13
2018-12-14T13:12:55.558Z,1004.12
2018-12-14T13:14:05.382Z,1004.14
2018-12-14T13:15:15.459Z,1004.15
2018-12-14T13:16:25.546Z,1004.14
2018-12-14T13:17:35.107Z,1004.18
2018-12-14T13:18:44.649Z,1004.17
2018-12-14T13:19:54.726Z,1004.15
2018-12-14T13:21:04.778Z,1004.1
2018-12-14T13:22:14.887Z,1004.15
2018-12-14T13:23:25.052Z,1004.13
2018-12-14T13:24:34.902Z,1004.13
2018-12-14T13:25:44.981Z,1004.13
2018-12-14T13:26:54.779Z,1004.1
2018-12-14T13:28:04.641Z,1004.09
2018-12-14T13:29:14.440Z,1004.1
2018-12-14T13:30:24.521Z,1004.1
2018-12-14T13:31:34.737Z,1004.1
2018-12-14T13:32:45.274Z,1004.14
2018-12-14T13:33:55.520Z,1004.16
2018-12-14T13:35:05.851Z,1004.14
2018-12-14T13:36:15.918Z,1004.12
2018-12-14T13:37:26.008Z,1004.17
2018-12-14T13:38:36.132Z,1004.18
2018-12-14T13:39:46.264Z,1004.18
2018-12-14T13:40:56.466Z,1004.18
2018-12-14T13:42:06.683Z,1004.17
2018-12-14T13:43:16.794Z,1004.15
2018-12-14T13:44:26.816Z,1004.21
2018-12-14T13:45:36.747Z,1004.18
2018-12-14T13:46:47.168Z,1004.17
2018-12-14T13:47:58.100Z,1004.2
2018-12-14T13:49:10.984Z,1004.23
2018-12-14T13:50:21.026Z,1004.27
2018-12-14T13:51:31.267Z,1004.32
2018-12-14T13:52:41.550Z,1004.31
2018-12-14T13:53:51.803Z,1004.29
2018-12-14T13:55:02.903Z,1004.3
2018-12-14T13:56:12.826Z,1004.28
2018-12-14T13:57:22.701Z,1004.3
2018-12-14T13:58:32.617Z,1004.28
2018-12-14T13:59:42.855Z,1004.29
2018-12-14T14:00:52.405Z,1004.31
2018-12-14T14:02:02.488Z,1004.29
2018-12-14T14:03:12.574Z,1004.33
2018-12-14T14:04:22.386Z,1004.32
2018-12-14T14:05:32.457Z,1004.37
2018-12-14T14:06:42.525Z,1004.33
2018-12-14T14:07:52.589Z,1004.34
2018-12-14T14:09:03.136Z,1004.32
2018-12-14T14:10:12.935Z,1004.31
2018-12-14T14:11:23.049Z,1004.32
2018-12-14T14:12:33.195Z,1004.32
2018-12-14T14:13:43.277Z,1004.3
2018-12-14T14:14:53.400Z,1004.3
2018-12-14T14:16:03.683Z,1004.28
2018-12-14T14:17:13.781Z,1004.34
2018-12-14T14:18:23.578Z,1004.34
2018-12-14T14:19:33.703Z,1004.33
2018-12-14T14:20:43.758Z,1004.34
2018-12-14T14:21:53.570Z,1004.34
2018-12-14T14:23:03.396Z,1004.31
2018-12-14T14:24:12.925Z,1004.35
2018-12-14T14:25:22.985Z,1004.42
2018-12-14T14:26:33.112Z,1004.44
2018-12-14T14:27:49.775Z,1004.44
2018-12-14T14:28:59.848Z,1004.41
2018-12-14T14:30:10.966Z,1004.41
2018-12-14T14:31:21.275Z,1004.41
2018-12-14T14:32:31.422Z,1004.38
2018-12-14T14:33:41.507Z,1004.44
2018-12-14T14:34:52.315Z,1004.39
2018-12-14T14:36:02.439Z,1004.46
2018-12-14T14:37:12.499Z,1004.45
2018-12-14T14:38:22.307Z,1004.46
2018-12-14T14:39:31.869Z,1004.45
2018-12-14T14:40:41.922Z,1004.43
2018-12-14T14:41:51.991Z,1004.41
2018-12-14T14:43:02.051Z,1004.42
2018-12-14T14:44:11.927Z,1004.44
2018-12-14T14:45:22.002Z,1004.47
2018-12-14T14:46:32.113Z,1004.49
2018-12-14T14:47:41.916Z,1004.55
2018-12-14T14:48:51.984Z,1004.55
2018-12-14T14:50:01.567Z,1004.54
2018-12-14T14:51:11.624Z,1004.57
2018-12-14T14:52:21.693Z,1004.57
2018-12-14T14:53:31.790Z,1004.59